Charity, Virginia
Current Conditions -  °F | °C
As of 5:35 PM on Tuesday 21 Oct 2014 (Local Time) from KMTV Reporting Station
Clear Clear  
Wind Chill: 64°   Ceiling: Unl
Heat Index: 64°   Visibility: 10mi
Dew Point: 43°   Wind: 14mph
Humidity: 46%   Direction: 320°NW
Pressure: 29.91"   Gusts: 20mph
Location:  36.9002°N, 80.0779°W
Report Text: KMTV 212135Z AUTO 32012G17KT 10SM CLR 18/06 A2991 RMK AO2 T01780061
Loading
Personal Weather Stations






























Interactive Weather Map
Tropical Storm Tracking
New forecast layout! Learn more

10-Day Weather Forecast

Advertisements
Track Severe Weather on mobile